createdAt,value
2022-11-30T00:00:35.090Z,28.47
2022-11-30T00:03:02.348Z,30.30
2022-11-30T00:05:29.567Z,31.50
2022-11-30T00:07:56.675Z,28.50
2022-11-30T00:10:24.193Z,32.60
2022-11-30T00:12:51.273Z,31.03
2022-11-30T00:15:18.506Z,27.40
2022-11-30T00:17:45.634Z,30.03
2022-11-30T00:20:13.281Z,31.37
2022-11-30T00:22:40.350Z,27.03
2022-11-30T00:25:07.869Z,28.20
2022-11-30T00:27:35.063Z,28.70
2022-11-30T00:30:02.202Z,24.77
2022-11-30T00:32:29.501Z,24.67
2022-11-30T00:34:56.539Z,23.00
2022-11-30T00:37:23.704Z,23.53
2022-11-30T00:39:50.940Z,23.17
2022-11-30T00:42:18.317Z,20.20
2022-11-30T00:44:45.868Z,21.13
2022-11-30T00:47:13.551Z,22.27
2022-11-30T00:49:40.606Z,22.80
2022-11-30T00:52:07.820Z,24.17
2022-11-30T00:54:34.913Z,22.03
2022-11-30T00:57:02.055Z,19.13
2022-11-30T00:59:29.119Z,20.60
2022-11-30T01:01:56.197Z,18.87
2022-11-30T01:04:23.227Z,21.93
2022-11-30T01:06:50.307Z,18.67
2022-11-30T01:09:17.398Z,20.30
2022-11-30T01:11:44.455Z,20.70
2022-11-30T01:14:11.749Z,17.73
2022-11-30T01:16:38.822Z,19.33
2022-11-30T01:19:06.080Z,19.30
2022-11-30T01:21:33.202Z,21.80
2022-11-30T01:24:00.322Z,21.53
2022-11-30T01:26:27.437Z,23.43
2022-11-30T01:28:54.949Z,26.70
2022-11-30T01:31:23.700Z,22.60
2022-11-30T01:33:55.069Z,24.20
2022-11-30T01:36:23.643Z,24.10
2022-11-30T01:38:52.070Z,24.47
2022-11-30T01:41:21.775Z,25.60
2022-11-30T01:43:52.956Z,25.47
2022-11-30T01:46:35.533Z,24.43
2022-11-30T01:49:05.857Z,24.47
2022-11-30T01:51:37.301Z,29.57
2022-11-30T01:54:06.536Z,26.27
2022-11-30T01:56:33.657Z,25.70
2022-11-30T01:59:01.254Z,27.10
2022-11-30T02:01:28.588Z,22.70
2022-11-30T02:03:58.567Z,24.73
2022-11-30T02:06:26.052Z,26.63
2022-11-30T02:08:54.025Z,28.17
2022-11-30T02:11:21.086Z,26.83
2022-11-30T02:14:06.568Z,26.37
2022-11-30T02:16:52.197Z,25.63
2022-11-30T02:19:38.058Z,31.77
2022-11-30T02:22:05.095Z,28.77
2022-11-30T02:24:39.765Z,27.00
2022-11-30T02:27:12.820Z,22.93
2022-11-30T02:29:45.372Z,27.00
2022-11-30T02:32:20.065Z,25.67
2022-11-30T02:34:47.818Z,26.87
2022-11-30T02:37:16.080Z,24.97
2022-11-30T02:39:44.152Z,25.77
2022-11-30T02:42:13.221Z,25.43
2022-11-30T02:44:50.545Z,24.03
2022-11-30T02:47:26.641Z,25.40
2022-11-30T02:49:59.589Z,32.07
2022-11-30T02:52:27.471Z,25.30
2022-11-30T02:54:59.166Z,30.80
2022-11-30T02:57:26.226Z,27.63
2022-11-30T02:59:53.364Z,30.47
2022-11-30T03:02:20.435Z,32.23
2022-11-30T03:04:47.724Z,30.60
2022-11-30T03:07:14.965Z,28.93
2022-11-30T03:09:41.994Z,30.03
2022-11-30T03:12:09.062Z,27.80
2022-11-30T03:14:36.192Z,29.30
2022-11-30T03:17:03.272Z,28.90
2022-11-30T03:19:30.328Z,27.37
2022-11-30T03:21:57.389Z,29.40
2022-11-30T03:24:24.420Z,28.43
2022-11-30T03:26:51.554Z,28.90
2022-11-30T03:29:18.801Z,27.37
2022-11-30T03:31:45.946Z,26.90
2022-11-30T03:34:12.992Z,29.13
2022-11-30T03:36:40.040Z,29.60
2022-11-30T03:39:07.096Z,35.50
2022-11-30T03:41:34.128Z,30.43
2022-11-30T03:44:01.229Z,31.07
2022-11-30T03:46:28.323Z,28.93
2022-11-30T03:48:55.438Z,27.93
2022-11-30T03:51:22.525Z,30.90
2022-11-30T03:53:49.727Z,30.53
2022-11-30T03:56:16.850Z,28.37
2022-11-30T03:58:43.933Z,31.47
2022-11-30T04:01:12.358Z,29.20
2022-11-30T04:03:39.695Z,33.27
2022-11-30T04:06:07.419Z,30.40
2022-11-30T04:08:35.375Z,31.87
2022-11-30T04:11:02.850Z,26.40
2022-11-30T04:13:30.547Z,35.03
2022-11-30T04:15:57.846Z,35.07
2022-11-30T04:18:25.679Z,29.77
2022-11-30T04:20:53.249Z,32.40
2022-11-30T04:23:20.857Z,36.23
2022-11-30T04:25:48.082Z,35.80
2022-11-30T04:28:16.346Z,32.50
2022-11-30T04:30:43.455Z,33.67
2022-11-30T04:33:11.016Z,29.90
2022-11-30T04:35:42.485Z,33.23
2022-11-30T04:38:09.575Z,33.83
2022-11-30T04:40:39.701Z,39.97
2022-11-30T04:43:06.987Z,29.20
2022-11-30T04:45:35.585Z,36.93
2022-11-30T04:48:03.248Z,29.50
2022-11-30T04:50:30.338Z,28.90
2022-11-30T04:52:57.765Z,35.73
2022-11-30T04:55:25.247Z,31.73
2022-11-30T04:57:52.335Z,31.13
2022-11-30T05:00:19.910Z,33.60
2022-11-30T05:02:52.419Z,33.10
2022-11-30T05:05:19.728Z,32.50
2022-11-30T05:07:49.733Z,32.03
2022-11-30T05:10:16.875Z,34.10
2022-11-30T05:12:43.952Z,32.97
2022-11-30T05:15:11.118Z,33.83
2022-11-30T05:17:38.125Z,32.10
2022-11-30T05:20:05.550Z,36.27
2022-11-30T05:22:35.031Z,32.70
2022-11-30T05:25:02.515Z,28.53
2022-11-30T05:27:29.680Z,35.93
2022-11-30T05:29:56.857Z,36.07
2022-11-30T05:32:23.870Z,34.63
2022-11-30T05:34:51.977Z,34.47
2022-11-30T05:37:19.649Z,35.97
2022-11-30T05:39:46.744Z,39.17
2022-11-30T05:42:13.803Z,37.47
2022-11-30T05:44:40.845Z,42.43
2022-11-30T05:47:07.917Z,37.00
2022-11-30T05:49:35.027Z,38.20
2022-11-30T05:52:02.064Z,41.40
2022-11-30T05:54:29.123Z,40.90
2022-11-30T05:56:56.220Z,35.17
2022-11-30T05:59:23.841Z,36.10
2022-11-30T06:01:52.591Z,36.73
2022-11-30T06:04:19.935Z,32.80
2022-11-30T06:06:47.588Z,32.17
2022-11-30T06:09:14.637Z,28.57
2022-11-30T06:11:41.693Z,27.33
2022-11-30T06:14:08.990Z,30.67
2022-11-30T06:16:36.131Z,28.13
2022-11-30T06:19:03.562Z,29.23
2022-11-30T06:21:30.621Z,25.40
2022-11-30T06:23:57.755Z,24.97
2022-11-30T06:26:24.846Z,22.40
2022-11-30T06:28:51.886Z,27.57
2022-11-30T06:31:18.956Z,27.03
2022-11-30T06:33:46.008Z,25.27
2022-11-30T06:36:13.110Z,26.33
2022-11-30T06:38:40.173Z,24.20
2022-11-30T06:41:08.434Z,20.90
2022-11-30T06:43:36.072Z,25.90
2022-11-30T06:46:03.798Z,22.93
2022-11-30T06:48:31.032Z,26.80
2022-11-30T06:50:58.853Z,22.93
2022-11-30T06:53:25.917Z,25.37
2022-11-30T06:55:52.997Z,30.30
2022-11-30T06:58:20.169Z,32.77
2022-11-30T07:00:47.282Z,28.57
2022-11-30T07:03:14.467Z,34.20
2022-11-30T07:05:43.468Z,32.53
2022-11-30T07:08:10.985Z,25.13
2022-11-30T07:10:42.063Z,36.00
2022-11-30T07:13:12.761Z,32.10
2022-11-30T07:15:40.463Z,32.10
2022-11-30T07:18:08.035Z,30.70
2022-11-30T07:20:35.548Z,27.97
2022-11-30T07:23:22.800Z,33.93
2022-11-30T07:26:07.954Z,26.27
2022-11-30T07:28:36.486Z,22.43
2022-11-30T07:31:16.342Z,26.20
2022-11-30T07:33:43.907Z,25.17
2022-11-30T07:36:11.259Z,24.80
2022-11-30T07:38:38.923Z,26.07
2022-11-30T07:41:06.119Z,23.20
2022-11-30T07:43:33.169Z,27.43
2022-11-30T07:46:00.824Z,22.73
2022-11-30T07:48:28.308Z,22.43
2022-11-30T07:50:55.418Z,26.67
2022-11-30T07:53:22.521Z,23.77
2022-11-30T07:55:55.489Z,20.70
2022-11-30T07:58:23.890Z,23.27
2022-11-30T08:00:51.290Z,23.67
2022-11-30T08:03:18.411Z,25.33
2022-11-30T08:05:45.465Z,19.10
2022-11-30T08:08:12.518Z,21.53
2022-11-30T08:10:39.560Z,20.77
2022-11-30T08:13:06.598Z,21.13
2022-11-30T08:15:34.270Z,23.27
2022-11-30T08:18:05.442Z,24.23
2022-11-30T08:20:32.604Z,21.83
2022-11-30T08:22:59.816Z,21.37
2022-11-30T08:25:26.894Z,19.10
2022-11-30T08:27:53.949Z,20.67
2022-11-30T08:30:20.986Z,18.77
2022-11-30T08:32:48.182Z,20.77
2022-11-30T08:35:15.253Z,17.70
2022-11-30T08:37:42.315Z,18.90
2022-11-30T08:40:09.555Z,21.53
2022-11-30T08:42:36.629Z,17.37
2022-11-30T08:45:03.963Z,19.60
2022-11-30T08:47:34.763Z,27.43
2022-11-30T08:50:02.081Z,23.63
2022-11-30T08:52:29.182Z,19.53
2022-11-30T08:54:56.770Z,18.30
2022-11-30T08:57:24.258Z,20.00
2022-11-30T08:59:51.327Z,21.20
2022-11-30T09:02:19.521Z,19.20
2022-11-30T09:04:48.720Z,21.37
2022-11-30T09:07:15.832Z,22.53
2022-11-30T09:09:43.221Z,21.63
2022-11-30T09:12:10.340Z,22.03
2022-11-30T09:14:37.409Z,20.03
2022-11-30T09:17:04.519Z,23.00
2022-11-30T09:19:31.653Z,19.03
2022-11-30T09:21:58.707Z,21.80
2022-11-30T09:24:25.913Z,20.27
2022-11-30T09:26:56.305Z,23.57
2022-11-30T09:29:23.780Z,21.83
2022-11-30T09:31:50.826Z,22.63
2022-11-30T09:34:17.927Z,23.50
2022-11-30T09:36:44.975Z,24.57
2022-11-30T09:39:13.012Z,22.37
2022-11-30T09:42:04.185Z,24.70
2022-11-30T09:44:37.340Z,23.13
2022-11-30T09:47:10.615Z,25.27
2022-11-30T09:49:42.199Z,21.60
2022-11-30T09:52:14.771Z,23.17
2022-11-30T09:54:43.656Z,23.97
2022-11-30T09:57:13.726Z,26.87
2022-11-30T09:59:43.298Z,24.57
2022-11-30T10:02:15.973Z,23.57
2022-11-30T10:04:43.527Z,23.87
2022-11-30T10:07:32.939Z,23.97
2022-11-30T10:10:30.197Z,21.53
2022-11-30T10:13:14.518Z,20.30
2022-11-30T10:15:56.991Z,23.97
2022-11-30T10:18:41.643Z,23.93
2022-11-30T10:21:25.605Z,26.47
2022-11-30T10:23:59.431Z,26.53
2022-11-30T10:26:39.955Z,26.60
2022-11-30T10:29:20.557Z,24.40
2022-11-30T10:31:49.592Z,29.43
2022-11-30T10:34:20.406Z,26.73
2022-11-30T10:36:54.039Z,25.63
2022-11-30T10:39:23.868Z,27.97
2022-11-30T10:42:20.007Z,34.13
2022-11-30T10:44:52.591Z,32.17
2022-11-30T10:47:23.078Z,29.40
2022-11-30T10:49:51.423Z,32.07
2022-11-30T10:52:21.988Z,29.13
2022-11-30T10:54:50.274Z,27.67
2022-11-30T10:57:17.326Z,26.77
2022-11-30T10:59:49.762Z,28.07
2022-11-30T11:02:36.097Z,23.47
2022-11-30T11:05:29.516Z,28.97
2022-11-30T11:08:07.194Z,25.37
2022-11-30T11:10:34.702Z,24.97
2022-11-30T11:13:02.184Z,26.53
2022-11-30T11:15:30.320Z,27.20
2022-11-30T11:18:21.083Z,26.77
2022-11-30T11:20:48.160Z,23.47
2022-11-30T11:23:28.513Z,25.10
2022-11-30T11:25:56.679Z,23.50
2022-11-30T11:28:25.085Z,25.00
2022-11-30T11:30:56.273Z,26.30
2022-11-30T11:33:24.760Z,22.20
2022-11-30T11:35:53.297Z,24.10
2022-11-30T11:38:20.358Z,24.33
2022-11-30T11:41:00.778Z,24.67
2022-11-30T11:43:29.982Z,25.23
2022-11-30T11:46:17.563Z,26.33
2022-11-30T11:48:58.072Z,29.27
2022-11-30T11:51:31.380Z,26.03
2022-11-30T11:54:01.183Z,24.57
2022-11-30T11:56:31.601Z,26.60
2022-11-30T11:59:03.927Z,28.17
2022-11-30T12:01:41.200Z,24.37
2022-11-30T12:04:17.948Z,24.33
2022-11-30T12:06:45.979Z,24.03
2022-11-30T12:09:15.880Z,20.40
2022-11-30T12:11:47.436Z,21.20
2022-11-30T12:14:18.541Z,21.17
2022-11-30T12:17:07.441Z,22.00
2022-11-30T12:19:55.442Z,25.87
2022-11-30T12:22:25.439Z,22.87
2022-11-30T12:25:06.262Z,22.73
2022-11-30T12:27:42.575Z,22.47
2022-11-30T12:30:20.572Z,18.43
2022-11-30T12:32:50.364Z,18.87
2022-11-30T12:35:28.118Z,20.57
2022-11-30T12:38:01.250Z,22.30
2022-11-30T12:40:43.587Z,19.57
2022-11-30T12:43:23.833Z,19.57
2022-11-30T12:45:52.632Z,25.57
2022-11-30T12:48:28.944Z,21.13
2022-11-30T12:50:56.030Z,21.63
2022-11-30T12:53:26.047Z,24.03
2022-11-30T12:56:04.964Z,20.13
2022-11-30T12:58:50.542Z,23.10
2022-11-30T13:01:29.902Z,19.10
2022-11-30T13:04:04.123Z,19.97
2022-11-30T13:06:34.884Z,24.97
2022-11-30T13:09:04.924Z,21.93
2022-11-30T13:11:37.089Z,19.27
2022-11-30T13:14:05.550Z,19.50
2022-11-30T13:16:35.115Z,19.70
2022-11-30T13:19:15.515Z,21.93
2022-11-30T13:21:48.091Z,25.97
2022-11-30T13:24:19.538Z,19.87
2022-11-30T13:26:50.687Z,18.23
2022-11-30T13:29:17.795Z,19.10
2022-11-30T13:31:49.176Z,21.53
2022-11-30T13:34:29.341Z,16.07
2022-11-30T13:37:07.655Z,18.50
2022-11-30T13:39:48.540Z,20.53
2022-11-30T13:42:34.357Z,19.37
2022-11-30T13:45:18.063Z,17.50
2022-11-30T13:47:47.937Z,22.07
2022-11-30T13:50:21.085Z,20.57
2022-11-30T13:53:03.555Z,17.77
2022-11-30T13:55:37.003Z,17.13
2022-11-30T13:58:06.710Z,18.47
2022-11-30T14:00:33.751Z,19.37
2022-11-30T14:03:19.038Z,17.80
2022-11-30T14:06:02.135Z,20.20
2022-11-30T14:08:36.992Z,16.30
2022-11-30T14:11:22.710Z,19.50
2022-11-30T14:13:49.841Z,15.77
2022-11-30T14:16:27.737Z,16.40
2022-11-30T14:18:56.395Z,19.83
2022-11-30T14:21:25.336Z,24.20
2022-11-30T14:23:53.104Z,23.03
2022-11-30T14:26:25.634Z,24.30
2022-11-30T14:28:52.712Z,19.10
2022-11-30T14:31:23.298Z,19.07
2022-11-30T14:33:58.503Z,21.60
2022-11-30T14:36:28.107Z,22.67
2022-11-30T14:38:55.194Z,20.97
2022-11-30T14:41:23.362Z,21.83
2022-11-30T14:43:59.703Z,20.60
2022-11-30T14:46:27.635Z,22.97
2022-11-30T14:49:06.430Z,20.17
2022-11-30T14:51:33.846Z,22.70
2022-11-30T14:54:12.609Z,20.00
2022-11-30T14:56:47.984Z,23.33
2022-11-30T14:59:47.911Z,21.90
2022-11-30T15:02:20.576Z,18.80
2022-11-30T15:04:48.900Z,24.57
2022-11-30T15:07:17.913Z,30.00
2022-11-30T15:09:47.148Z,25.47
2022-11-30T15:12:19.055Z,26.67
2022-11-30T15:15:24.617Z,26.97
2022-11-30T15:18:10.899Z,28.67
2022-11-30T15:20:54.044Z,24.17
2022-11-30T15:23:21.198Z,27.40
2022-11-30T15:25:50.626Z,23.50
2022-11-30T15:28:43.936Z,28.17
2022-11-30T15:31:14.348Z,28.87
2022-11-30T15:33:43.120Z,26.90
2022-11-30T15:36:27.877Z,27.90
2022-11-30T15:38:57.542Z,29.47
2022-11-30T15:41:25.477Z,27.90
2022-11-30T15:43:54.176Z,33.23
2022-11-30T15:46:33.431Z,23.30
2022-11-30T15:49:06.896Z,26.53
2022-11-30T15:51:38.345Z,31.37
2022-11-30T15:54:05.450Z,27.37
2022-11-30T15:56:32.502Z,26.77
2022-11-30T15:59:01.600Z,29.17
2022-11-30T16:01:31.212Z,30.23
2022-11-30T16:04:02.780Z,30.43
2022-11-30T16:06:32.008Z,30.80
2022-11-30T16:09:02.725Z,28.70
2022-11-30T16:11:29.906Z,34.03
2022-11-30T16:13:57.060Z,29.57
2022-11-30T16:16:28.220Z,36.10
2022-11-30T16:18:55.320Z,29.50
2022-11-30T16:21:22.381Z,33.23
2022-11-30T16:23:49.609Z,33.67
2022-11-30T16:29:05.243Z,40.60
2022-11-30T16:31:32.514Z,41.23
2022-11-30T16:33:59.691Z,38.43
2022-11-30T16:36:26.750Z,39.23
2022-11-30T16:38:54.363Z,46.47
2022-11-30T16:41:22.802Z,32.80
2022-11-30T16:43:50.793Z,48.57
2022-11-30T16:46:22.063Z,37.83
2022-11-30T16:48:49.302Z,39.03
2022-11-30T16:51:22.267Z,39.73
2022-11-30T16:53:49.308Z,32.83
2022-11-30T16:56:16.683Z,34.07
2022-11-30T16:58:44.361Z,41.53
2022-11-30T17:01:34.795Z,34.07
2022-11-30T17:04:07.238Z,39.90
2022-11-30T17:06:34.345Z,31.53
2022-11-30T17:09:01.506Z,37.87
2022-11-30T17:11:30.129Z,39.63
2022-11-30T17:13:57.208Z,38.60
2022-11-30T17:16:24.401Z,38.23
2022-11-30T17:18:51.771Z,35.67
2022-11-30T17:21:20.842Z,40.37
2022-11-30T17:23:47.971Z,39.20
2022-11-30T17:26:15.133Z,34.73
2022-11-30T17:28:42.495Z,40.90
2022-11-30T17:31:10.576Z,37.63
2022-11-30T17:33:38.046Z,39.70
2022-11-30T17:36:06.503Z,38.60
2022-11-30T17:38:34.762Z,36.20
2022-11-30T17:41:04.746Z,37.93
2022-11-30T17:43:31.885Z,37.23
2022-11-30T17:45:58.980Z,34.93
2022-11-30T17:48:26.045Z,34.70
2022-11-30T17:50:53.245Z,32.63
2022-11-30T17:53:20.383Z,34.50
2022-11-30T17:55:47.551Z,34.80
2022-11-30T17:58:14.640Z,37.13
2022-11-30T18:00:42.132Z,38.63
2022-11-30T18:03:09.156Z,35.83
2022-11-30T18:05:36.218Z,39.87
2022-11-30T18:08:03.486Z,38.80
2022-11-30T18:10:30.561Z,38.13
2022-11-30T18:12:57.624Z,31.13
2022-11-30T18:15:24.678Z,35.13
2022-11-30T18:17:52.509Z,34.17
2022-11-30T18:20:19.701Z,41.47
2022-11-30T18:22:46.797Z,35.13
2022-11-30T18:25:15.416Z,36.50
2022-11-30T18:27:42.599Z,37.50
2022-11-30T18:30:10.393Z,37.40
2022-11-30T18:32:37.633Z,39.63
2022-11-30T18:35:05.081Z,40.10
2022-11-30T18:37:34.133Z,40.33
2022-11-30T18:40:01.221Z,40.53
2022-11-30T18:42:28.329Z,43.53
2022-11-30T18:44:55.984Z,43.77
2022-11-30T18:47:23.122Z,47.13
2022-11-30T18:49:50.175Z,43.53
2022-11-30T18:52:17.337Z,48.37
2022-11-30T18:54:44.403Z,46.33
2022-11-30T18:57:11.509Z,49.10
2022-11-30T18:59:38.605Z,49.87
2022-11-30T19:02:05.724Z,44.67
2022-11-30T19:04:33.207Z,51.27
2022-11-30T19:07:00.296Z,54.43
2022-11-30T19:09:27.352Z,48.93
2022-11-30T19:11:54.627Z,51.93
2022-11-30T19:14:21.701Z,45.67
2022-11-30T19:16:48.815Z,62.37
2022-11-30T19:19:16.330Z,53.37
2022-11-30T19:21:45.108Z,59.27
2022-11-30T19:24:12.191Z,48.93
2022-11-30T19:26:40.148Z,54.23
2022-11-30T19:29:07.863Z,60.87
2022-11-30T19:31:34.944Z,69.93
2022-11-30T19:34:07.754Z,65.20
2022-11-30T19:36:37.807Z,68.80
2022-11-30T19:39:04.912Z,63.00
2022-11-30T19:41:32.000Z,59.57
2022-11-30T19:44:03.937Z,65.47
2022-11-30T19:46:32.903Z,66.03
2022-11-30T19:49:01.250Z,69.27
2022-11-30T19:51:29.313Z,70.60
2022-11-30T19:53:57.552Z,62.97
2022-11-30T19:56:25.580Z,60.50
2022-11-30T19:58:52.706Z,62.70
2022-11-30T20:01:22.950Z,63.70
2022-11-30T20:03:50.679Z,70.43
2022-11-30T20:06:18.360Z,67.40
2022-11-30T20:08:45.857Z,61.97
2022-11-30T20:11:14.150Z,74.53
2022-11-30T20:13:41.273Z,74.97
2022-11-30T20:16:12.619Z,73.17
2022-11-30T20:18:45.468Z,77.73
2022-11-30T20:21:17.706Z,66.40
2022-11-30T20:23:46.950Z,77.23
2022-11-30T20:26:26.050Z,64.97
2022-11-30T20:28:53.394Z,75.57
2022-11-30T20:31:21.680Z,71.70
2022-11-30T20:33:48.985Z,66.33
2022-11-30T20:36:17.231Z,79.03
2022-11-30T20:38:44.316Z,79.83
2022-11-30T20:41:15.370Z,72.37
2022-11-30T20:43:43.196Z,83.73
2022-11-30T20:46:27.290Z,84.37
2022-11-30T20:48:55.376Z,74.17
2022-11-30T20:51:31.769Z,85.40
2022-11-30T20:54:00.545Z,86.23
2022-11-30T20:56:27.614Z,74.37
2022-11-30T20:58:54.734Z,85.97
2022-11-30T21:01:22.251Z,78.07
2022-11-30T21:03:49.504Z,73.47
2022-11-30T21:06:16.622Z,77.13
2022-11-30T21:08:44.012Z,71.57
2022-11-30T21:11:15.264Z,68.87
2022-11-30T21:13:43.878Z,80.80
2022-11-30T21:16:11.491Z,75.97
2022-11-30T21:18:39.447Z,75.80
2022-11-30T21:21:17.279Z,69.40
2022-11-30T21:23:44.999Z,79.53
2022-11-30T21:26:18.293Z,78.60
2022-11-30T21:28:45.900Z,80.50
2022-11-30T21:31:13.506Z,71.37
2022-11-30T21:33:40.652Z,97.07
2022-11-30T21:36:08.924Z,83.67
2022-11-30T21:38:36.405Z,74.73
2022-11-30T21:41:03.971Z,69.13
2022-11-30T21:43:31.686Z,72.07
2022-11-30T21:45:59.654Z,84.30
2022-11-30T21:48:28.810Z,71.67
2022-11-30T21:51:22.441Z,89.97
2022-11-30T21:53:53.874Z,71.70
2022-11-30T21:56:22.494Z,88.70
2022-11-30T21:58:50.177Z,74.77
2022-11-30T22:01:21.571Z,77.23
2022-11-30T22:03:48.667Z,85.00
2022-11-30T22:06:17.264Z,71.77
2022-11-30T22:08:44.792Z,66.27
2022-11-30T22:11:15.810Z,74.40
2022-11-30T22:13:43.407Z,83.30
2022-11-30T22:16:11.945Z,66.23
2022-11-30T22:18:39.541Z,71.87
2022-11-30T22:21:11.177Z,66.93
2022-11-30T22:23:39.744Z,68.97
2022-11-30T22:26:09.711Z,71.83
2022-11-30T22:28:36.921Z,71.47
2022-11-30T22:31:04.991Z,68.33
2022-11-30T22:33:33.034Z,59.07
2022-11-30T22:36:00.455Z,71.70
2022-11-30T22:38:27.647Z,64.40
2022-11-30T22:40:54.974Z,71.97
2022-11-30T22:43:22.015Z,60.27
2022-11-30T22:45:49.256Z,55.93
2022-11-30T22:48:16.399Z,57.30
2022-11-30T22:50:43.457Z,52.77
2022-11-30T22:53:10.514Z,63.00
2022-11-30T22:55:37.723Z,48.17
2022-11-30T22:58:04.813Z,49.67
2022-11-30T23:00:31.845Z,54.07
2022-11-30T23:02:58.941Z,52.00
2022-11-30T23:05:26.034Z,44.03
2022-11-30T23:07:53.156Z,47.37
2022-11-30T23:10:20.241Z,46.90
2022-11-30T23:13:02.200Z,51.77
2022-11-30T23:15:29.282Z,46.37
2022-11-30T23:17:56.340Z,43.77
2022-11-30T23:20:23.436Z,47.30
2022-11-30T23:22:50.474Z,46.27
2022-11-30T23:25:17.599Z,49.67
2022-11-30T23:27:44.644Z,45.37
2022-11-30T23:30:11.930Z,46.37
2022-11-30T23:32:38.966Z,53.33
2022-11-30T23:35:06.173Z,46.27
2022-11-30T23:37:33.212Z,47.47
2022-11-30T23:40:00.269Z,45.67
2022-11-30T23:42:27.317Z,43.37
2022-11-30T23:45:00.906Z,44.53
2022-11-30T23:47:28.064Z,51.50
2022-11-30T23:49:55.092Z,45.03
2022-11-30T23:52:22.164Z,58.33
2022-11-30T23:54:49.245Z,61.90
2022-11-30T23:57:16.304Z,61.27
2022-11-30T23:59:43.358Z,56.13
